Time;durP1;ratioP1;P1;durP2;ratioP2;P2;SDS_P1;SDS_P2;PMS_P1;PMS_P2;Temp;Humidity;BMP_temperature;BMP_pressure;BME280_temperature;BME280_humidity;BME280_pressure;Samples;Min_cycle;Max_cycle;Signal;HPM_P1;HPM_P2
2021/12/12 00:02:44;;;;;;;17.08;12.23;;;-1.00;99.90;;;;;;7398804;19;20356;-85
2021/12/12 00:05:10;;;;;;;16.10;11.98;;;-1.00;99.90;;;;;;7395325;19;20336;-81
2021/12/12 00:07:37;;;;;;;13.50;11.30;;;-1.10;99.90;;;;;;7394085;19;20345;-81
2021/12/12 00:10:24;;;;;;;13.38;10.88;;;-1.00;99.90;;;;;;7376907;19;20293;-82
2021/12/12 00:12:59;;;;;;;14.73;12.05;;;-1.10;99.90;;;;;;7288515;19;2004429;-82
2021/12/12 00:15:26;;;;;;;13.40;10.90;;;-1.20;99.90;;;;;;7400178;19;20325;-83
2021/12/12 00:17:52;;;;;;;17.80;12.60;;;-1.20;99.90;;;;;;7390054;19;20308;-82
2021/12/12 00:20:37;;;;;;;15.00;11.38;;;-1.20;99.90;;;;;;7296682;19;2004419;-83
2021/12/12 00:23:04;;;;;;;15.82;12.55;;;-1.20;99.90;;;;;;7397986;19;20400;-82
2021/12/12 00:25:35;;;;;;;16.77;11.80;;;-1.30;99.90;;;;;;7401222;19;20353;-82
2021/12/12 00:28:22;;;;;;;16.33;9.30;;;-1.20;99.90;;;;;;7372079;19;20309;-82
2021/12/12 00:31:14;;;;;;;14.47;11.73;;;-1.20;99.90;;;;;;7199127;19;2004330;-80
2021/12/12 00:34:01;;;;;;;14.60;11.77;;;-1.20;99.90;;;;;;7396519;19;20308;-81
2021/12/12 00:36:43;;;;;;;14.60;12.05;;;-1.40;99.90;;;;;;7293872;19;2004339;-81
2021/12/12 00:39:25;;;;;;;15.52;11.70;;;-1.40;99.90;;;;;;7398853;19;20348;-84
2021/12/12 00:45:01;;;;;;;14.25;11.90;;;-1.50;99.90;;;;;;7355513;19;20831;-83
2021/12/12 00:47:27;;;;;;;14.05;11.60;;;-1.50;99.90;;;;;;7397924;19;20363;-83
2021/12/12 00:49:54;;;;;;;13.27;10.93;;;-1.60;99.90;;;;;;7394134;19;20324;-83
2021/12/12 00:52:20;;;;;;;15.67;11.57;;;-1.60;99.90;;;;;;7399765;19;20339;-83
2021/12/12 00:54:54;;;;;;;12.98;10.88;;;-1.60;99.90;;;;;;7395694;19;20336;-82
2021/12/12 00:58:21;;;;;;;13.13;10.70;;;-1.60;99.90;;;;;;7199670;19;2004463;-81
2021/12/12 01:01:59;;;;;;;14.02;10.75;;;-1.60;99.90;;;;;;7321715;19;20341;-81
2021/12/12 01:05:24;;;;;;;15.07;11.52;;;-1.60;99.90;;;;;;7185071;19;2005481;-82
2021/12/12 01:07:52;;;;;;;13.13;10.90;;;-1.50;99.90;;;;;;7357524;19;20859;-82
2021/12/12 01:13:36;;;;;;;15.60;11.98;;;-1.60;99.90;;;;;;7341089;19;20324;-82
2021/12/12 01:16:09;;;;;;;14.88;11.25;;;-1.50;99.90;;;;;;7394213;19;20320;-82
2021/12/12 01:18:38;;;;;;;16.60;12.00;;;-1.50;99.90;;;;;;7396865;19;20715;-84
2021/12/12 01:21:14;;;;;;;15.75;11.52;;;-1.50;99.90;;;;;;7397539;19;20314;-82
2021/12/12 01:23:52;;;;;;;15.98;11.77;;;-1.50;99.90;;;;;;7397419;19;20328;-82
2021/12/12 01:26:20;;;;;;;13.23;10.57;;;-1.50;99.90;;;;;;7394590;19;20320;-86
2021/12/12 01:28:53;;;;;;;13.77;11.38;;;-1.50;99.90;;;;;;7395906;19;20305;-83
2021/12/12 01:31:24;;;;;;;19.27;12.75;;;-1.50;99.90;;;;;;7397116;19;20308;-82
2021/12/12 01:33:58;;;;;;;17.25;12.52;;;-1.50;99.90;;;;;;7393642;19;20384;-82
2021/12/12 01:36:42;;;;;;;12.95;10.85;;;-1.60;99.90;;;;;;7394531;19;20309;-82
2021/12/12 01:42:11;;;;;;;16.85;11.50;;;-1.60;99.90;;;;;;7341358;19;20332;-83
2021/12/12 01:45:19;;;;;;;13.35;10.93;;;-1.50;99.90;;;;;;7386192;19;20315;-82
2021/12/12 01:48:15;;;;;;;15.25;10.88;;;-1.50;99.90;;;;;;7342946;19;20339;-82
2021/12/12 01:50:44;;;;;;;14.20;11.60;;;-1.60;99.90;;;;;;7347163;19;20324;-82
2021/12/12 01:53:51;;;;;;;15.07;9.50;;;-1.60;99.90;;;;;;7388316;19;20336;-82
2021/12/12 02:00:00;;;;;;;15.48;11.25;;;-1.70;99.90;;;;;;7372964;19;20345;-81
2021/12/12 02:05:55;;;;;;;13.40;10.60;;;-1.60;99.90;;;;;;7395396;19;20369;-83
2021/12/12 02:08:22;;;;;;;12.15;9.60;;;-1.60;99.90;;;;;;7402812;19;20339;-82
2021/12/12 02:10:53;;;;;;;10.90;8.97;;;-1.60;99.90;;;;;;7397503;19;20288;-83
2021/12/12 02:13:20;;;;;;;10.88;9.68;;;-1.50;99.90;;;;;;7396587;19;20385;-83
2021/12/12 02:16:03;;;;;;;10.43;8.87;;;-1.50;99.90;;;;;;7345737;19;20320;-82
2021/12/12 02:18:37;;;;;;;10.50;8.63;;;-1.60;99.90;;;;;;7378313;19;20309;-80
2021/12/12 02:21:40;;;;;;;11.95;8.75;;;-1.60;99.90;;;;;;7244738;19;2004358;-81
2021/12/12 02:37:01;;;;;;;13.97;10.03;;;-1.60;99.90;;;;;;7405665;19;20448;-81
2021/12/12 02:40:32;;;;;;;11.35;8.32;;;-1.70;99.90;;;;;;6962806;19;7364018;-85
2021/12/12 02:44:20;;;;;;;8.93;8.03;;;-1.70;99.90;;;;;;7409706;19;20356;-80
2021/12/12 02:47:39;;;;;;;14.50;8.23;;;-1.80;99.90;;;;;;7251237;19;2004752;-82
2021/12/12 02:50:43;;;;;;;9.52;8.38;;;-1.80;99.90;;;;;;7242715;19;2004402;-81
2021/12/12 02:54:35;;;;;;;9.52;7.80;;;-1.90;99.90;;;;;;7408380;19;20781;-82
2021/12/12 02:57:08;;;;;;;9.30;7.83;;;-2.00;99.90;;;;;;7225001;19;2004470;-83
2021/12/12 03:08:23;;;;;;;9.45;8.45;;;-2.10;99.90;;;;;;7347343;19;20317;-81
2021/12/12 03:11:28;;;;;;;11.15;8.15;;;-2.10;99.90;;;;;;7332692;19;20324;-82
2021/12/12 03:22:17;;;;;;;9.27;8.40;;;-2.20;99.90;;;;;;7400617;19;20726;-81
2021/12/12 03:25:25;;;;;;;8.93;8.02;;;-2.30;99.90;;;;;;7372919;19;20357;-82
2021/12/12 03:28:48;;;;;;;13.80;8.93;;;-2.30;99.90;;;;;;7392451;19;20328;-81
2021/12/12 03:32:41;;;;;;;12.40;8.43;;;-2.40;99.90;;;;;;7170154;19;2004670;-81
2021/12/12 03:35:19;;;;;;;10.73;7.35;;;-2.50;99.90;;;;;;7353107;19;20323;-82
2021/12/12 03:52:15;;;;;;;11.52;9.23;;;-2.70;99.90;;;;;;7373460;19;20396;-80
2021/12/12 03:54:44;;;;;;;9.30;7.85;;;-2.80;99.90;;;;;;7393097;19;20325;-80
2021/12/12 03:57:10;;;;;;;8.93;7.67;;;-2.80;99.90;;;;;;7396591;19;20350;-79
2021/12/12 03:59:36;;;;;;;12.93;8.37;;;-2.80;99.90;;;;;;7390835;19;20316;-82
2021/12/12 04:09:25;;;;;;;10.60;7.88;;;-2.90;99.90;;;;;;7224695;19;2004490;-80
2021/12/12 04:12:47;;;;;;;10.45;8.57;;;-2.80;99.90;;;;;;7401687;19;20353;-80
2021/12/12 04:22:16;;;;;;;8.75;7.72;;;-2.90;99.90;;;;;;7391703;19;20356;-79
2021/12/12 04:24:45;;;;;;;9.57;8.05;;;-2.90;99.90;;;;;;7392275;19;20325;-80
2021/12/12 04:27:12;;;;;;;8.88;7.68;;;-2.90;99.90;;;;;;7389873;19;20448;-80
2021/12/12 04:30:25;;;;;;;8.63;7.40;;;-3.00;99.90;;;;;;7340528;19;20417;-81
2021/12/12 04:33:59;;;;;;;9.07;7.72;;;-3.00;99.90;;;;;;7337432;19;20337;-81
2021/12/12 04:36:56;;;;;;;10.75;7.43;;;-3.10;99.90;;;;;;7392125;19;20328;-80
2021/12/12 04:39:50;;;;;;;8.77;7.37;;;-3.00;99.90;;;;;;7253546;19;2004492;-79
2021/12/12 04:43:08;;;;;;;8.15;7.35;;;-3.00;99.90;;;;;;7346622;19;20316;-79
2021/12/12 04:46:20;;;;;;;8.40;7.53;;;-3.10;99.90;;;;;;7057758;19;2004497;-79
2021/12/12 04:49:56;;;;;;;10.88;7.05;;;-3.10;99.90;;;;;;7091928;19;2004540;-80
2021/12/12 04:52:36;;;;;;;7.97;7.18;;;-3.10;99.90;;;;;;7275987;19;20338;-79
2021/12/12 04:55:26;;;;;;;8.50;7.65;;;-3.10;99.90;;;;;;7317924;19;21315;-80
2021/12/12 04:58:10;;;;;;;8.50;7.60;;;-3.10;99.90;;;;;;7212570;19;2004436;-80
2021/12/12 05:00:48;;;;;;;9.70;7.10;;;-3.10;99.90;;;;;;7332569;19;20691;-80
2021/12/12 05:04:16;;;;;;;10.38;7.55;;;-3.10;99.90;;;;;;7204607;19;2004492;-80
2021/12/12 05:07:20;;;;;;;8.23;7.10;;;-3.10;99.90;;;;;;7103119;19;2004513;-80
2021/12/12 05:10:36;;;;;;;9.05;6.72;;;-3.20;99.90;;;;;;7136275;19;2004420;-80
2021/12/12 05:18:14;;;;;;;8.57;6.20;;;-3.20;99.90;;;;;;7249389;19;2004330;-81
2021/12/12 05:21:35;;;;;;;7.43;6.55;;;-3.30;99.90;;;;;;7125553;19;2004525;-79
2021/12/12 05:25:03;;;;;;;8.13;7.32;;;-3.20;99.90;;;;;;7354378;19;20641;-79
2021/12/12 05:28:20;;;;;;;7.53;6.72;;;-3.20;99.90;;;;;;7270696;19;2004490;-80
2021/12/12 05:31:21;;;;;;;10.32;7.35;;;-3.20;99.90;;;;;;7267393;19;2004236;-80
2021/12/12 05:34:50;;;;;;;8.20;7.17;;;-3.20;99.90;;;;;;7102314;19;2004484;-80
2021/12/12 05:37:53;;;;;;;8.02;6.80;;;-3.30;99.90;;;;;;7306730;19;20396;-80
2021/12/12 05:41:18;;;;;;;9.07;7.20;;;-3.30;99.90;;;;;;7342058;19;20329;-79
2021/12/12 05:44:12;;;;;;;8.13;7.07;;;-3.20;99.90;;;;;;7348511;19;20323;-81
2021/12/12 05:46:52;;;;;;;8.15;7.03;;;-3.20;99.90;;;;;;7393769;19;20921;-80
2021/12/12 05:50:01;;;;;;;8.13;6.53;;;-3.30;99.90;;;;;;7326798;19;20880;-80
2021/12/12 05:53:23;;;;;;;6.97;6.28;;;-3.30;99.90;;;;;;7248036;19;2004307;-79
2021/12/12 05:57:07;;;;;;;9.32;7.30;;;-3.20;99.90;;;;;;7289306;19;2004323;-81
2021/12/12 05:59:46;;;;;;;7.75;6.70;;;-3.30;99.90;;;;;;7342034;19;20363;-80
2021/12/12 06:03:37;;;;;;;8.02;6.93;;;-3.30;99.90;;;;;;7316813;19;20329;-80
2021/12/12 06:07:32;;;;;;;6.65;5.68;;;-3.30;99.90;;;;;;7385257;19;20327;-80
2021/12/12 06:13:36;;;;;;;7.20;6.50;;;-3.30;99.90;;;;;;7293357;19;20317;-80
2021/12/12 06:17:33;;;;;;;7.20;6.45;;;-3.30;99.90;;;;;;7348657;19;20395;-80
2021/12/12 06:20:54;;;;;;;7.32;6.43;;;-3.30;99.90;;;;;;7337811;19;20393;-79
2021/12/12 06:23:39;;;;;;;9.18;6.45;;;-3.30;99.90;;;;;;7359664;19;20478;-80
2021/12/12 06:26:49;;;;;;;7.00;6.30;;;-3.40;99.90;;;;;;7392050;19;20352;-80
2021/12/12 06:30:47;;;;;;;6.07;5.50;;;-3.30;99.90;;;;;;7294125;19;2004248;-80
2021/12/12 06:44:49;;;;;;;6.55;5.28;;;-3.30;99.90;;;;;;7385632;19;20350;-80
2021/12/12 06:48:38;;;;;;;7.97;6.30;;;-3.30;99.90;;;;;;7305507;19;2004591;-81
2021/12/12 06:54:16;;;;;;;7.28;6.57;;;-3.30;99.90;;;;;;7398349;19;24788;-81
2021/12/12 06:56:42;;;;;;;9.35;7.50;;;-3.30;99.90;;;;;;7396700;19;20321;-80
2021/12/12 06:59:07;;;;;;;7.43;6.65;;;-3.30;99.90;;;;;;7396424;19;20361;-80
2021/12/12 07:01:34;;;;;;;7.70;6.57;;;-3.20;99.90;;;;;;7397165;19;20296;-81
2021/12/12 07:04:08;;;;;;;16.97;9.30;;;-3.20;99.90;;;;;;7369761;19;20305;-80
2021/12/12 07:06:54;;;;;;;15.43;10.23;;;-3.10;99.90;;;;;;7357890;19;20871;-81
2021/12/12 07:09:41;;;;;;;14.30;11.05;;;-3.20;99.90;;;;;;7308175;19;20332;-81
2021/12/12 07:12:42;;;;;;;12.55;10.35;;;-3.10;99.90;;;;;;7340889;19;20318;-80
2021/12/12 07:15:15;;;;;;;14.57;10.68;;;-3.10;99.90;;;;;;7220208;19;2004188;-81
2021/12/12 07:28:32;;;;;;;11.75;8.85;;;-2.90;99.90;;;;;;7396357;19;20320;-80
2021/12/12 07:31:09;;;;;;;7.60;6.85;;;-2.80;99.90;;;;;;7340684;19;20400;31
2021/12/12 07:33:35;;;;;;;7.78;6.97;;;-2.90;99.90;;;;;;7398685;19;20331;-81
2021/12/12 07:36:03;;;;;;;12.20;8.80;;;-2.70;99.90;;;;;;7386550;19;20317;-80
2021/12/12 07:38:29;;;;;;;8.85;7.47;;;-2.50;99.90;;;;;;7391179;19;20911;-81
2021/12/12 07:40:56;;;;;;;8.77;7.50;;;-2.60;99.90;;;;;;7390204;19;20355;-80
2021/12/12 08:10:08;;;;;;;10.23;8.07;;;-1.80;99.90;;;;;;7323632;19;20349;-82
2021/12/12 08:12:51;;;;;;;8.33;6.80;;;-1.70;99.90;;;;;;7113935;19;2004995;-82
2021/12/12 08:16:00;;;;;;;8.23;7.43;;;-1.60;99.90;;;;;;7340191;19;20992;-82
2021/12/12 08:18:48;;;;;;;18.77;13.27;;;-1.60;99.90;;;;;;7171168;19;2004359;-82
2021/12/12 08:21:33;;;;;;;12.68;10.20;;;-1.50;99.90;;;;;;7343460;19;20352;-81
2021/12/12 08:25:12;;;;;;;15.17;11.27;;;-1.40;99.90;;;;;;7145216;19;2004497;-82
2021/12/12 08:28:35;;;;;;;10.43;8.98;;;-1.30;99.90;;;;;;7132321;19;2004455;-82
2021/12/12 08:31:32;;;;;;;15.70;10.37;;;-1.20;99.90;;;;;;7133788;19;2004414;-84
2021/12/12 08:34:13;;;;;;;17.35;12.82;;;-1.10;99.90;;;;;;7227642;19;2004441;-84
2021/12/12 08:37:24;;;;;;;16.10;12.05;;;-1.10;99.90;;;;;;7226789;19;2004527;-82
2021/12/12 08:40:48;;;;;;;14.85;9.95;;;-1.00;99.90;;;;;;7146731;19;2004746;-82
2021/12/12 09:14:50;;;;;;;9.73;8.70;;;0.00;99.90;;;;;;7415727;19;20313;-85
2021/12/12 09:17:29;;;;;;;9.15;7.80;;;-0.10;99.90;;;;;;7310784;19;2004407;-83
2021/12/12 09:20:31;;;;;;;10.20;9.20;;;0.00;99.90;;;;;;7411387;19;20416;-86
2021/12/12 09:23:35;;;;;;;10.85;9.75;;;0.10;99.90;;;;;;7307307;19;2004448;-82
2021/12/12 09:26:23;;;;;;;12.50;9.57;;;0.20;99.90;;;;;;7196486;19;2004472;-81
2021/12/12 09:28:56;;;;;;;9.15;8.23;;;0.20;99.90;;;;;;7298507;19;2004457;-83
2021/12/12 09:31:27;;;;;;;8.75;7.60;;;0.30;99.90;;;;;;7405616;19;20301;-80
2021/12/12 09:33:56;;;;;;;9.80;8.43;;;0.40;99.90;;;;;;7406174;19;20823;-81
2021/12/12 09:36:35;;;;;;;9.45;7.93;;;0.40;99.90;;;;;;7410404;19;20356;-82
2021/12/12 09:39:24;;;;;;;11.43;10.23;;;0.50;99.90;;;;;;7395287;19;20336;-81
2021/12/12 09:42:02;;;;;;;9.75;8.35;;;0.60;99.90;;;;;;7308305;19;2004452;-82
2021/12/12 09:45:06;;;;;;;8.65;7.43;;;0.60;99.90;;;;;;7302954;19;2004402;-81
2021/12/12 09:48:03;;;;;;;8.73;6.50;;;0.60;99.90;;;;;;7199733;19;2004373;-80
2021/12/12 09:54:06;;;;;;;8.05;6.03;;;0.80;99.90;;;;;;7282864;19;2004435;-82
2021/12/12 09:56:56;;;;;;;7.78;6.90;;;0.90;99.90;;;;;;7296147;19;2008947;-82
2021/12/12 09:59:43;;;;;;;7.63;6.57;;;1.00;99.90;;;;;;7300823;19;2004533;-82
2021/12/12 10:02:41;;;;;;;8.70;7.50;;;1.00;99.90;;;;;;7387873;19;20308;-85
2021/12/12 10:05:16;;;;;;;9.43;7.22;;;1.00;99.90;;;;;;7299780;19;2006527;-85
2021/12/12 10:07:58;;;;;;;7.93;6.47;;;1.00;99.90;;;;;;7411982;19;20336;-83
2021/12/12 10:10:35;;;;;;;14.50;10.10;;;1.10;99.90;;;;;;7412996;19;20321;-84
2021/12/12 10:13:08;;;;;;;9.05;7.38;;;1.20;99.90;;;;;;7390377;19;20300;-82
2021/12/12 10:15:40;;;;;;;9.30;7.95;;;1.30;99.90;;;;;;7418501;19;20313;-86
2021/12/12 10:18:20;;;;;;;9.70;6.95;;;1.30;99.90;;;;;;7413314;19;20320;-85
2021/12/12 10:21:01;;;;;;;7.60;6.90;;;1.40;99.90;;;;;;7317717;19;2004497;-85
2021/12/12 10:23:46;;;;;;;7.45;6.75;;;1.50;99.90;;;;;;7419032;19;20348;-86
2021/12/12 10:26:17;;;;;;;8.00;7.20;;;1.50;99.90;;;;;;7422783;19;20363;-87
2021/12/12 10:32:13;;;;;;;7.03;5.80;;;1.60;99.90;;;;;;7299298;19;2004193;-84
2021/12/12 10:34:45;;;;;;;7.28;6.55;;;1.70;99.90;;;;;;7398815;19;20349;-85
2021/12/12 11:22:35;;;;;;;9.05;7.75;;;2.50;99.90;;;;;;7404839;19;20361;-83
2021/12/12 11:25:32;;;;;;;8.67;7.83;;;2.60;99.90;;;;;;7317500;19;2004474;-84
2021/12/12 11:28:01;;;;;;;9.38;7.43;;;2.60;99.90;;;;;;7314648;19;2004385;-87
2021/12/12 11:30:38;;;;;;;9.18;7.60;;;2.70;99.90;;;;;;7397763;19;20305;-85
2021/12/12 11:33:06;;;;;;;9.13;7.78;;;2.80;99.90;;;;;;7315769;19;2005257;-85
2021/12/12 11:35:35;;;;;;;7.37;6.60;;;2.90;99.90;;;;;;7414007;19;20366;-85
2021/12/12 11:38:03;;;;;;;7.00;6.30;;;2.90;99.90;;;;;;7421401;19;20333;-84
2021/12/12 11:40:30;;;;;;;7.18;5.82;;;3.00;99.90;;;;;;7416561;19;20388;-86
2021/12/12 11:43:02;;;;;;;6.53;5.88;;;3.10;99.90;;;;;;7422763;19;20373;-86
2021/12/12 11:45:38;;;;;;;7.07;6.23;;;3.10;99.90;;;;;;7419678;19;20357;-84
2021/12/12 11:48:34;;;;;;;6.77;6.07;;;3.00;99.90;;;;;;7418272;19;20309;-85
2021/12/12 11:51:13;;;;;;;7.47;6.57;;;3.10;99.90;;;;;;7318029;19;2005676;-85
2021/12/12 11:53:43;;;;;;;8.32;7.00;;;3.10;99.90;;;;;;7317909;19;2004754;-86
2021/12/12 11:56:45;;;;;;;9.15;8.18;;;3.00;99.90;;;;;;7421924;19;20289;-87
2021/12/12 11:59:22;;;;;;;8.63;6.70;;;2.90;99.90;;;;;;7291783;19;2004367;-86
2021/12/12 12:01:51;;;;;;;7.80;6.57;;;2.90;99.90;;;;;;7418896;19;20325;-84
2021/12/12 12:04:36;;;;;;;6.60;6.00;;;2.90;99.90;;;;;;7403807;19;20341;-86
2021/12/12 12:07:25;;;;;;;8.32;7.13;;;2.90;99.90;;;;;;7421451;19;20317;-87
2021/12/12 12:10:48;;;;;;;6.93;6.22;;;2.80;99.90;;;;;;7320045;19;2004497;-84
2021/12/12 12:13:32;;;;;;;8.57;7.15;;;2.80;99.90;;;;;;7193921;19;2004226;-84
2021/12/12 12:16:02;;;;;;;7.83;6.50;;;2.70;99.90;;;;;;7410358;19;20348;-83
2021/12/12 12:18:38;;;;;;;7.35;6.18;;;2.80;99.90;;;;;;7412470;19;20365;-87
2021/12/12 12:21:19;;;;;;;6.73;5.47;;;2.70;99.90;;;;;;7407976;19;20340;-86
2021/12/12 12:58:47;;;;;;;6.32;4.90;;;2.70;99.90;;;;;;7408308;19;20388;-80
2021/12/12 13:02:17;;;;;;;10.77;7.53;;;2.70;99.90;;;;;;7248474;19;2004413;-80
2021/12/12 13:05:48;;;;;;;9.88;7.03;;;2.70;99.90;;;;;;7396818;19;20333;-79
2021/12/12 13:30:03;;;;;;;5.65;5.15;;;2.80;99.90;;;;;;7382441;19;20346;-80
2021/12/12 13:33:29;;;;;;;7.28;5.78;;;2.80;99.90;;;;;;7253835;19;2004402;-81
2021/12/12 13:36:09;;;;;;;7.38;5.63;;;2.80;99.90;;;;;;7384419;19;20365;-81
2021/12/12 13:39:07;;;;;;;5.90;5.28;;;2.50;99.90;;;;;;7238291;19;2004422;-81
2021/12/12 13:41:52;;;;;;;5.30;4.80;;;2.70;99.90;;;;;;7275896;19;2004220;-79
2021/12/12 13:44:47;;;;;;;6.13;5.32;;;2.70;99.90;;;;;;7258114;19;2004448;-81
2021/12/12 13:47:39;;;;;;;6.85;6.13;;;2.60;99.90;;;;;;7264104;19;2004480;-81
2021/12/12 13:50:27;;;;;;;6.23;5.63;;;2.60;99.90;;;;;;7260121;19;2004320;-81
2021/12/12 13:53:34;;;;;;;5.05;4.43;;;2.50;99.90;;;;;;7248753;19;2004436;-80
2021/12/12 13:56:16;;;;;;;7.10;5.93;;;2.50;99.90;;;;;;7268755;19;2004006;-80
2021/12/12 13:59:22;;;;;;;6.17;5.57;;;2.30;99.90;;;;;;7362349;19;20738;-80
2021/12/12 14:02:05;;;;;;;7.15;5.50;;;2.40;99.90;;;;;;7248413;19;2004388;-81
2021/12/12 14:07:45;;;;;;;8.43;6.80;;;2.40;99.90;;;;;;7329917;19;20320;-80
2021/12/12 14:10:31;;;;;;;7.05;5.97;;;2.40;99.90;;;;;;7253953;19;2004436;-80
2021/12/12 14:16:24;;;;;;;8.75;6.97;;;2.30;99.90;;;;;;7351359;19;20340;-79
2021/12/12 14:19:20;;;;;;;5.82;5.03;;;2.30;99.90;;;;;;7333523;19;20351;-81
2021/12/12 14:33:01;;;;;;;7.00;5.47;;;2.40;99.90;;;;;;7406091;19;20356;-80
2021/12/12 14:36:11;;;;;;;11.32;9.32;;;2.30;99.90;;;;;;7409319;19;20353;-80
2021/12/12 14:43:03;;;;;;;14.40;8.95;;;2.20;99.90;;;;;;7410695;19;20463;-80
2021/12/12 14:46:51;;;;;;;12.63;10.17;;;2.10;99.90;;;;;;7310150;19;2004592;-80
2021/12/12 14:50:20;;;;;;;10.25;7.15;;;2.10;99.90;;;;;;7304371;19;20356;-79
2021/12/12 14:56:57;;;;;;;18.70;11.65;;;2.00;99.90;;;;;;7356280;19;20753;-79
2021/12/12 14:59:39;;;;;;;8.82;6.78;;;2.00;99.90;;;;;;7225320;19;2004414;-79
2021/12/12 15:02:20;;;;;;;11.35;8.52;;;2.00;99.90;;;;;;7339288;19;20305;-80
2021/12/12 15:05:29;;;;;;;6.10;5.05;;;2.00;99.90;;;;;;7267596;19;2004462;-80
2021/12/12 15:08:32;;;;;;;5.80;4.53;;;2.00;99.90;;;;;;7315200;19;20327;-79
2021/12/12 15:11:10;;;;;;;5.47;4.95;;;2.00;99.90;;;;;;7250985;19;2004286;-80
2021/12/12 15:13:41;;;;;;;5.85;5.20;;;1.90;99.90;;;;;;7250984;19;2004372;-79
2021/12/12 15:16:33;;;;;;;6.15;5.32;;;1.90;99.90;;;;;;7364739;19;20371;-79
2021/12/12 15:19:16;;;;;;;4.88;4.38;;;1.90;99.90;;;;;;7253620;19;2004444;-79
2021/12/12 15:21:47;;;;;;;6.80;5.00;;;1.90;99.90;;;;;;7374946;19;20369;-79
2021/12/12 15:24:19;;;;;;;4.18;3.83;;;1.90;99.90;;;;;;7374806;19;20325;-79
2021/12/12 15:26:48;;;;;;;5.93;4.90;;;1.90;99.90;;;;;;7269156;19;2004468;-79
2021/12/12 15:29:20;;;;;;;5.95;4.97;;;1.90;99.90;;;;;;7370143;19;20668;-79
2021/12/12 15:31:48;;;;;;;5.20;4.30;;;1.90;99.90;;;;;;7377176;19;20337;-79
2021/12/12 15:34:17;;;;;;;6.80;5.10;;;1.90;99.90;;;;;;7369725;19;20305;-78
2021/12/12 15:36:54;;;;;;;5.45;4.95;;;1.90;99.90;;;;;;7373527;19;20346;-79
2021/12/12 15:39:23;;;;;;;4.88;4.10;;;1.90;99.90;;;;;;7371464;19;20361;-78
2021/12/12 15:41:52;;;;;;;4.25;3.42;;;1.90;99.90;;;;;;7373543;19;20397;-79
2021/12/12 15:44:21;;;;;;;6.15;4.60;;;1.90;99.90;;;;;;7378974;19;20392;-79
2021/12/12 15:46:50;;;;;;;4.18;3.78;;;1.90;99.90;;;;;;7371709;19;20344;-79
2021/12/12 15:49:20;;;;;;;5.13;4.55;;;1.90;99.90;;;;;;7371040;19;20329;-78
2021/12/12 15:51:48;;;;;;;9.83;7.67;;;1.90;99.90;;;;;;7363537;19;20451;-79
2021/12/12 15:54:19;;;;;;;5.78;4.93;;;2.00;99.90;;;;;;7371170;19;20442;-79
2021/12/12 15:56:53;;;;;;;5.13;4.37;;;1.90;99.90;;;;;;7373162;19;20494;-79
2021/12/12 15:59:26;;;;;;;4.97;4.20;;;1.90;99.90;;;;;;7274263;19;2004579;-79
2021/12/12 16:01:59;;;;;;;4.20;3.80;;;1.90;99.90;;;;;;7373572;19;20312;-78
2021/12/12 16:04:27;;;;;;;5.70;4.30;;;2.00;99.90;;;;;;7367508;19;20946;-79
2021/12/12 16:07:04;;;;;;;5.20;4.18;;;2.00;99.90;;;;;;7374844;19;20316;-79
2021/12/12 16:09:34;;;;;;;4.97;4.47;;;2.00;99.90;;;;;;7356080;19;20328;-78
2021/12/12 16:12:19;;;;;;;4.65;4.25;;;2.10;99.90;;;;;;7339669;19;20925;-79
2021/12/12 16:15:03;;;;;;;5.95;5.20;;;1.90;99.90;;;;;;7346681;19;20949;-79
2021/12/12 16:24:17;;;;;;;4.45;4.00;;;2.00;99.90;;;;;;7327280;19;20407;-80
2021/12/12 16:27:15;;;;;;;4.30;4.00;;;1.90;99.90;;;;;;7322638;19;20361;-79
2021/12/12 16:30:07;;;;;;;4.40;3.97;;;1.90;99.90;;;;;;7121088;19;2004421;-80
2021/12/12 16:33:53;;;;;;;4.40;3.95;;;2.10;99.90;;;;;;7253794;19;20351;-80
2021/12/12 16:37:02;;;;;;;5.53;4.13;;;1.90;99.90;;;;;;7195162;19;2004387;-78
2021/12/12 16:40:07;;;;;;;4.72;4.22;;;2.00;99.90;;;;;;7342417;19;20368;-79
2021/12/12 16:46:49;;;;;;;4.82;4.03;;;1.90;99.90;;;;;;7276479;19;2004417;-80
2021/12/12 17:42:08;;;;;;;9.43;7.77;;;2.00;99.90;;;;;;7310586;19;20380;-79
2021/12/12 17:52:00;;;;;;;8.52;6.75;;;2.00;99.90;;;;;;7369554;19;20811;-83
2021/12/12 17:54:49;;;;;;;7.07;6.15;;;2.10;99.90;;;;;;7250098;19;2005103;-83
2021/12/12 17:57:51;;;;;;;7.25;5.72;;;2.10;99.90;;;;;;7350738;19;20345;-83
2021/12/12 18:01:00;;;;;;;4.10;3.70;;;2.10;99.90;;;;;;7261493;19;2004194;-83
2021/12/12 18:03:39;;;;;;;4.35;3.78;;;1.90;99.90;;;;;;7239391;19;2004448;-84
2021/12/12 18:06:37;;;;;;;3.60;3.30;;;2.20;99.90;;;;;;7382118;19;20357;-85
2021/12/12 18:09:49;;;;;;;3.85;3.53;;;2.10;99.90;;;;;;7266671;19;2004306;-84
2021/12/12 18:12:18;;;;;;;3.67;3.38;;;2.10;99.90;;;;;;7285921;19;2004482;-83
2021/12/12 18:14:47;;;;;;;3.85;3.28;;;2.10;99.90;;;;;;7377509;19;20324;-84
2021/12/12 18:18:08;;;;;;;3.80;3.42;;;2.00;99.90;;;;;;7397237;19;21105;-83
2021/12/12 18:20:45;;;;;;;2.88;2.67;;;2.00;99.90;;;;;;7177887;19;2004463;-84
2021/12/12 18:23:33;;;;;;;3.47;3.00;;;2.00;99.90;;;;;;7308687;19;2004394;-84
2021/12/12 18:26:40;;;;;;;5.97;3.30;;;2.00;99.90;;;;;;7336855;19;20353;-84
2021/12/12 18:29:19;;;;;;;4.43;3.47;;;2.10;99.90;;;;;;7292216;19;2004451;-84
2021/12/12 18:31:51;;;;;;;4.28;3.60;;;2.10;99.90;;;;;;7357326;19;20336;-84
2021/12/12 18:34:42;;;;;;;5.23;3.93;;;2.10;99.90;;;;;;7349062;19;20396;-83
2021/12/12 18:37:22;;;;;;;3.72;3.42;;;2.10;99.90;;;;;;7395611;19;20352;-84
2021/12/12 18:39:54;;;;;;;5.63;4.10;;;2.10;99.90;;;;;;7393985;19;20348;-85
2021/12/12 18:42:31;;;;;;;5.55;4.28;;;2.10;99.90;;;;;;7419159;19;20327;-85
2021/12/12 18:45:05;;;;;;;5.03;3.70;;;2.20;99.90;;;;;;7420802;19;20317;-87
2021/12/12 18:47:44;;;;;;;4.20;3.50;;;2.10;99.90;;;;;;7390132;19;20353;-82
2021/12/12 19:57:28;;;;;;;5.13;3.15;;;2.20;99.90;;;;;;7392181;19;20723;-85
2021/12/12 20:00:39;;;;;;;5.15;4.00;;;2.30;99.90;;;;;;7290982;19;2004236;-86
2021/12/12 20:03:23;;;;;;;5.90;4.72;;;2.30;99.90;;;;;;7269185;19;2005406;-85
2021/12/12 20:05:57;;;;;;;5.65;4.38;;;2.20;99.90;;;;;;7406923;19;20345;-86
2021/12/12 20:08:33;;;;;;;4.47;3.83;;;2.20;99.90;;;;;;7412702;19;20334;-85
2021/12/12 20:11:10;;;;;;;4.07;3.53;;;2.30;99.90;;;;;;7357998;19;20348;-84
2021/12/12 20:13:46;;;;;;;5.25;3.90;;;2.30;99.90;;;;;;7376593;19;20308;-87
2021/12/12 20:16:34;;;;;;;6.07;4.47;;;2.30;99.90;;;;;;7422338;19;20321;-87
2021/12/12 21:20:26;;;;;;;3.17;2.88;;;2.30;99.90;;;;;;7318868;19;20355;-82
2021/12/12 21:22:55;;;;;;;2.95;2.75;;;2.30;99.90;;;;;;7411666;19;20693;-83
2021/12/12 21:25:37;;;;;;;2.42;2.22;;;2.40;99.90;;;;;;7412962;19;20352;-85
2021/12/12 21:28:17;;;;;;;2.83;2.60;;;2.40;99.90;;;;;;7307973;19;2004265;-85
2021/12/12 21:31:00;;;;;;;5.70;4.35;;;2.40;99.90;;;;;;7410033;19;20361;-89
2021/12/12 21:33:37;;;;;;;10.55;9.45;;;2.30;99.90;;;;;;7376641;19;20309;-84
2021/12/12 21:36:21;;;;;;;20.08;15.48;;;2.30;99.90;;;;;;7407930;19;20548;-86
2021/12/12 21:38:52;;;;;;;37.75;21.70;;;2.40;99.90;;;;;;7417478;19;20359;-84
2021/12/12 21:41:17;;;;;;;43.15;27.02;;;2.40;99.90;;;;;;7417676;19;20355;-82
2021/12/12 22:04:23;;;;;;;3.40;3.10;;;2.40;99.90;;;;;;7421914;19;20312;-84
2021/12/12 22:07:05;;;;;;;4.05;3.63;;;2.40;99.90;;;;;;7321719;19;2004457;-85
2021/12/12 22:09:36;;;;;;;3.15;2.95;;;2.40;99.90;;;;;;7319964;19;2004420;-88
2021/12/12 22:12:04;;;;;;;2.88;2.53;;;2.50;99.90;;;;;;7381158;19;20341;-84
2021/12/12 22:14:52;;;;;;;4.38;3.08;;;2.50;99.90;;;;;;7419270;19;20342;-87
2021/12/12 22:17:33;;;;;;;3.35;3.00;;;2.40;99.90;;;;;;7427515;19;20332;-86
2021/12/12 22:20:19;;;;;;;3.58;2.92;;;2.40;99.90;;;;;;7323432;19;2003860;-84
2021/12/12 22:22:49;;;;;;;4.88;3.47;;;2.40;99.90;;;;;;7324925;19;2004404;-84
2021/12/12 22:25:28;;;;;;;3.65;3.03;;;2.40;99.90;;;;;;7422359;19;20292;-86
2021/12/12 22:28:03;;;;;;;3.75;3.45;;;2.40;99.90;;;;;;7321409;19;2004509;-88
2021/12/12 22:30:29;;;;;;;3.85;3.55;;;2.60;99.90;;;;;;7425406;19;20349;-84
2021/12/12 22:32:58;;;;;;;3.20;2.83;;;2.50;99.90;;;;;;7404182;19;20358;-86
2021/12/12 22:35:27;;;;;;;2.80;2.60;;;2.50;99.90;;;;;;7420705;19;20351;-87
2021/12/12 23:51:13;;;;;;;2.15;1.95;;;2.60;99.90;;;;;;7301585;19;21233;-88
2021/12/12 23:53:50;;;;;;;2.08;1.92;;;2.60;99.90;;;;;;7421967;19;20337;-86
2021/12/12 23:56:21;;;;;;;1.75;1.65;;;2.60;99.90;;;;;;7422338;19;20324;-88
2021/12/12 23:58:52;;;;;;;1.92;1.83;;;2.60;99.90;;;;;;7416450;19;20341;-88
